KFAY

Fayetteville Regional / Grannis Field Airport

Fayetteville, North Carolina, USA
METAR KFAY 220353Z 00000KT 10SM CLR M05/M13 A3056 RMK AO2 SLP346 T10501128
Observed Flight Rules
Jan-22 @ 03:53 UTC (23 minutes ago) Visual Flight Rules
Visibility Clouds
10 miles
  • Clear skies
Temperatures Readings
Current -5°C / 23°F
Dewpoint -13°C / 9°F
Humidity 54%
Altimeter 30.56" Hg
Pressure 1034.6 hPa
Elevation 55
METAR KFAY 220353Z 00000KT 10SM CLR M05/M13 A3056 RMK AO2 SLP346 T10501128
Observed Flight Rules
Jan-22 @ 03:53 UTC
(23 minutes ago)
VFR
Clouds
  • Clear skies
Temperature Dewpoint
-5°C / 23°F -13°C / 9°F
Humidity Altimeter Pressure
54% 30.56" Hg 1034.6 hPa